Time;durP1;ratioP1;P1;durP2;ratioP2;P2;SDS_P1;SDS_P2;PMS_P1;PMS_P2;Temp;Humidity;BMP_temperature;BMP_pressure;BME280_temperature;BME280_humidity;BME280_pressure;Samples;Min_cycle;Max_cycle;Signal;HPM_P1;HPM_P2
2021/09/10 00:00:13;;;;;;;12.68;9.43;;;;;;;13.50;100.00;97770.84;5042967;28;20032;-85
2021/09/10 00:02:38;;;;;;;13.02;8.85;;;;;;;13.36;100.00;97752.16;5042178;28;20050;-84
2021/09/10 00:05:06;;;;;;;13.35;9.30;;;;;;;13.41;100.00;97776.03;5059135;28;20542;-84
2021/09/10 00:07:32;;;;;;;12.32;8.18;;;;;;;13.34;100.00;97753.22;5045426;28;20492;-85
2021/09/10 00:09:57;;;;;;;12.88;7.80;;;;;;;13.23;100.00;97734.28;5045747;28;20060;-85
2021/09/10 00:12:23;;;;;;;12.70;7.20;;;;;;;13.39;100.00;97776.13;5054230;28;20028;-83
2021/09/10 00:14:48;;;;;;;10.02;6.88;;;;;;;13.06;100.00;97722.03;5041948;28;20033;-83
2021/09/10 00:17:14;;;;;;;9.88;7.45;;;;;;;13.18;100.00;97757.94;5058337;28;20373;-83
2021/09/10 00:19:39;;;;;;;11.98;7.55;;;;;;;13.21;100.00;97755.91;5055457;28;20040;-81
2021/09/10 00:22:05;;;;;;;12.75;8.23;;;;;;;12.95;100.00;97728.13;5060715;28;20110;-83
2021/09/10 00:24:31;;;;;;;13.50;8.52;;;;;;;13.20;100.00;97772.13;5058747;28;20397;-83
2021/09/10 00:26:56;;;;;;;13.55;9.25;;;;;;;13.17;100.00;97758.91;5069214;28;20064;-83
2021/09/10 00:29:22;;;;;;;11.60;8.40;;;;;;;13.19;100.00;97770.41;5062651;28;20032;-84
2021/09/10 00:31:47;;;;;;;13.93;7.75;;;;;;;13.04;100.00;97762.38;5062384;28;20029;-84
2021/09/10 00:34:14;;;;;;;13.20;8.40;;;;;;;12.96;100.00;97742.41;5046233;28;20091;-84
2021/09/10 00:36:40;;;;;;;12.35;8.13;;;;;;;13.06;100.00;97746.19;5048892;28;20094;-84
2021/09/10 00:39:06;;;;;;;10.02;7.95;;;;;;;13.25;100.00;97781.59;5048504;28;20029;-83
2021/09/10 00:41:32;;;;;;;11.25;8.75;;;;;;;13.04;100.00;97766.94;5044979;28;20165;-84
2021/09/10 00:43:57;;;;;;;16.60;7.78;;;;;;;13.12;100.00;97775.34;5061686;28;20473;-84
2021/09/10 00:46:23;;;;;;;10.13;7.88;;;;;;;13.01;100.00;97759.09;5047071;28;20037;-83
2021/09/10 00:48:49;;;;;;;13.55;8.20;;;;;;;12.98;100.00;97756.59;5048620;28;20028;-84
2021/09/10 00:51:14;;;;;;;17.33;8.38;;;;;;;12.90;100.00;97748.19;5047768;28;20476;-84
2021/09/10 00:53:40;;;;;;;9.52;8.00;;;;;;;12.93;100.00;97764.09;5048693;28;20032;-84
2021/09/10 00:56:06;;;;;;;13.02;8.10;;;;;;;12.87;100.00;97764.50;5048112;28;20085;-84
2021/09/10 00:58:31;;;;;;;13.15;7.85;;;;;;;12.84;100.00;97757.53;5062085;28;20036;-84
2021/09/10 01:00:57;;;;;;;12.77;8.05;;;;;;;13.00;100.00;97776.16;5045102;28;20449;-83
2021/09/10 01:03:22;;;;;;;9.82;7.32;;;;;;;12.94;100.00;97750.59;5063744;28;20100;-84
2021/09/10 01:05:48;;;;;;;9.95;7.40;;;;;;;12.99;100.00;97759.16;5065349;28;20037;-85
2021/09/10 01:08:15;;;;;;;11.75;7.72;;;;;;;12.97;100.00;97760.25;5040295;28;20517;-84
2021/09/10 01:10:41;;;;;;;12.23;8.00;;;;;;;12.82;100.00;97751.41;5052813;28;20037;-85
2021/09/10 01:13:07;;;;;;;10.43;8.25;;;;;;;12.92;100.00;97767.78;5052558;28;20020;-85
2021/09/10 01:15:33;;;;;;;11.88;7.43;;;;;;;12.93;100.00;97756.03;5064925;28;20074;-85
2021/09/10 01:17:59;;;;;;;9.50;7.75;;;;;;;12.95;100.00;97730.78;5048416;28;20016;-84
2021/09/10 01:20:25;;;;;;;10.65;7.10;;;;;;;13.09;100.00;97748.69;5064700;28;20484;-83
2021/09/10 01:22:50;;;;;;;10.07;7.10;;;;;;;12.89;100.00;97722.31;5047764;28;20028;-84
2021/09/10 01:25:20;;;;;;;10.70;6.78;;;;;;;13.20;100.00;97756.88;5064470;28;20044;-84
2021/09/10 01:27:53;;;;;;;9.13;7.15;;;;;;;12.81;100.00;97697.81;5044470;28;20032;-84
2021/09/10 01:30:21;;;;;;;10.80;7.20;;;;;;;13.12;100.00;97753.00;5044774;28;20032;-84
2021/09/10 01:32:48;;;;;;;10.88;6.95;;;;;;;13.10;100.00;97744.19;5061454;28;20029;-84
2021/09/10 01:35:14;;;;;;;9.80;7.13;;;;;;;12.98;100.00;97719.00;5060927;28;20104;-84
2021/09/10 01:37:40;;;;;;;10.00;6.90;;;;;;;13.21;100.00;97746.97;5047447;28;20055;-85
2021/09/10 01:40:07;;;;;;;11.32;6.35;;;;;;;13.25;100.00;97759.25;5047712;28;20478;-84
2021/09/10 01:42:32;;;;;;;12.40;7.57;;;;;;;13.24;100.00;97757.50;5045839;28;20483;-85
2021/09/10 01:44:58;;;;;;;9.75;6.97;;;;;;;13.24;100.00;97754.84;5060926;28;20087;-84
2021/09/10 01:47:24;;;;;;;9.07;7.18;;;;;;;13.24;100.00;97758.38;5044525;28;20471;-84
2021/09/10 01:49:49;;;;;;;10.00;7.90;;;;;;;13.07;100.00;97751.44;5047399;28;20042;-84
2021/09/10 01:52:15;;;;;;;14.15;8.32;;;;;;;13.07;100.00;97760.47;5040220;28;20056;-84
2021/09/10 01:54:41;;;;;;;12.27;8.60;;;;;;;13.08;100.00;97755.03;5046007;28;20037;-84
2021/09/10 01:57:06;;;;;;;11.50;8.48;;;;;;;13.07;100.00;97753.28;5047249;28;20023;-84
2021/09/10 01:59:32;;;;;;;14.10;9.10;;;;;;;13.04;100.00;97750.81;5060192;28;20127;-84
2021/09/10 02:01:58;;;;;;;19.48;10.82;;;;;;;12.71;100.00;97688.66;5067525;28;20025;-84
2021/09/10 02:04:24;;;;;;;16.52;10.68;;;;;;;12.73;100.00;97710.91;5043880;28;20020;-84
2021/09/10 02:06:49;;;;;;;18.80;11.27;;;;;;;13.05;100.00;97758.75;5038906;28;20067;-84
2021/09/10 02:09:15;;;;;;;12.68;9.43;;;;;;;12.93;100.00;97747.97;5046702;28;20020;-84
2021/09/10 02:11:40;;;;;;;16.42;10.55;;;;;;;12.78;100.00;97728.41;5046831;28;20028;-84
2021/09/10 02:14:06;;;;;;;24.83;11.27;;;;;;;12.79;100.00;97734.66;5046973;28;20111;-84
2021/09/10 02:16:32;;;;;;;18.08;11.23;;;;;;;12.80;100.00;97736.34;5063501;28;20032;-84
2021/09/10 02:18:57;;;;;;;16.00;10.88;;;;;;;13.07;100.00;97772.94;5047383;28;20528;-84
2021/09/10 02:21:23;;;;;;;13.82;9.75;;;;;;;12.97;100.00;97750.38;5046827;28;20024;-84
2021/09/10 02:23:49;;;;;;;21.55;13.65;;;;;;;12.95;100.00;97756.81;5060190;28;20408;-82
2021/09/10 02:26:15;;;;;;;17.02;11.07;;;;;;;12.82;100.00;97731.75;5042757;28;20051;-84
2021/09/10 02:28:41;;;;;;;15.95;8.82;;;;;;;12.95;100.00;97763.03;5061028;28;20114;-84
2021/09/10 02:31:06;;;;;;;12.20;8.75;;;;;;;12.94;100.00;97755.94;5058191;28;20028;-84
2021/09/10 02:33:32;;;;;;;12.55;7.65;;;;;;;12.95;100.00;97762.19;5042798;28;20028;-84
2021/09/10 02:35:58;;;;;;;14.00;8.60;;;;;;;12.89;100.00;97754.50;5038900;28;20032;-85
2021/09/10 02:38:24;;;;;;;12.95;7.47;;;;;;;12.92;100.00;97757.03;5047560;28;20052;-84
2021/09/10 02:40:50;;;;;;;9.07;7.15;;;;;;;12.85;100.00;97756.56;5042996;28;20107;-84
2021/09/10 02:43:16;;;;;;;10.15;7.22;;;;;;;12.94;100.00;97765.81;5059754;28;20031;-85
2021/09/10 02:45:42;;;;;;;10.57;7.13;;;;;;;12.87;100.00;97743.03;5044195;28;20470;-84
2021/09/10 02:48:07;;;;;;;15.30;8.95;;;;;;;12.94;100.00;97749.72;5063180;28;20028;-84
2021/09/10 02:50:33;;;;;;;15.50;8.82;;;;;;;12.96;100.00;97764.75;5046585;28;20051;-85
2021/09/10 02:52:59;;;;;;;14.68;8.65;;;;;;;13.01;100.00;97773.34;5038239;28;20495;-84
2021/09/10 02:55:25;;;;;;;13.43;8.65;;;;;;;13.02;100.00;97767.03;5045755;28;20027;-84
2021/09/10 02:57:51;;;;;;;20.15;11.18;;;;;;;12.76;100.00;97733.03;5062616;28;20075;-85
2021/09/10 03:00:17;;;;;;;17.02;10.35;;;;;;;12.81;100.00;97740.75;5064044;28;20423;-84
2021/09/10 03:02:42;;;;;;;22.98;12.93;;;;;;;12.97;100.00;97768.31;5044782;28;20032;-84
2021/09/10 03:05:09;;;;;;;24.15;13.75;;;;;;;13.06;100.00;97783.78;5042560;28;20036;-85
2021/09/10 03:07:35;;;;;;;20.15;12.60;;;;;;;12.95;100.00;97771.06;5059147;28;20017;-84
2021/09/10 03:10:01;;;;;;;19.42;14.32;;;;;;;12.97;100.00;97766.47;5045604;28;20115;-85
2021/09/10 03:12:27;;;;;;;25.90;17.25;;;;;;;12.88;100.00;97767.09;5045787;28;20576;-84
2021/09/10 03:14:52;;;;;;;29.80;18.02;;;;;;;12.67;100.00;97732.78;5062746;28;20111;-84
2021/09/10 03:17:18;;;;;;;18.55;11.55;;;;;;;12.74;100.00;97763.59;5062898;28;20022;-84
2021/09/10 03:19:43;;;;;;;20.85;11.82;;;;;;;12.72;100.00;97749.44;5062383;28;20107;-84
2021/09/10 03:22:09;;;;;;;23.48;12.80;;;;;;;12.76;100.00;97772.44;5054560;28;20024;-85
2021/09/10 03:24:35;;;;;;;20.08;11.40;;;;;;;12.76;100.00;97764.38;5045543;28;20028;-81
2021/09/10 03:27:00;;;;;;;15.45;10.30;;;;;;;12.80;100.00;97779.31;5059612;28;20381;-84
2021/09/10 03:29:26;;;;;;;13.75;9.48;;;;;;;12.45;100.00;97725.31;5059188;28;20100;-85
2021/09/10 03:31:51;;;;;;;12.75;9.52;;;;;;;12.55;100.00;97757.78;5043602;28;20523;-83
2021/09/10 03:34:17;;;;;;;12.90;9.32;;;;;;;12.70;100.00;97788.97;5041008;28;20027;-84
2021/09/10 03:36:42;;;;;;;13.35;9.60;;;;;;;12.62;100.00;97780.53;5059097;28;20025;-84
2021/09/10 03:39:08;;;;;;;17.63;10.25;;;;;;;12.53;100.00;97755.19;5045370;28;20120;-84
2021/09/10 03:41:34;;;;;;;14.20;9.20;;;;;;;12.65;100.00;97762.41;5062218;28;20415;-83
2021/09/10 03:43:59;;;;;;;11.57;8.88;;;;;;;12.59;100.00;97748.53;5043613;28;20029;-84
2021/09/10 03:46:25;;;;;;;14.70;8.52;;;;;;;12.41;100.00;97716.63;5058512;28;20070;-84
2021/09/10 03:48:51;;;;;;;13.57;8.80;;;;;;;12.76;100.00;97778.66;5061418;28;20601;-84
2021/09/10 03:51:17;;;;;;;12.98;8.93;;;;;;;12.88;100.00;97788.59;5059013;28;20032;-84
2021/09/10 03:53:43;;;;;;;14.75;8.35;;;;;;;12.73;100.00;97762.78;5041762;28;20492;-84
2021/09/10 03:56:09;;;;;;;18.52;8.23;;;;;;;12.87;100.00;97783.31;5061312;28;20108;-85
2021/09/10 03:58:34;;;;;;;14.40;8.43;;;;;;;12.76;100.00;97777.81;5046458;28;20021;-84
2021/09/10 04:01:00;;;;;;;25.77;9.50;;;;;;;12.87;100.00;97781.50;5048140;28;20031;-85
2021/09/10 04:03:26;;;;;;;15.88;9.90;;;;;;;12.82;100.00;97772.03;5042890;28;20496;-85
2021/09/10 04:05:51;;;;;;;14.68;9.00;;;;;;;12.83;100.00;97776.41;5057636;28;20404;-84
2021/09/10 04:08:17;;;;;;;15.40;10.15;;;;;;;12.99;100.00;97791.41;5070995;28;20048;-85
2021/09/10 04:10:43;;;;;;;17.20;10.93;;;;;;;12.98;100.00;97794.19;5046173;28;20222;-84
2021/09/10 04:13:09;;;;;;;16.67;9.70;;;;;;;12.56;100.00;97721.91;5064919;28;20029;-84
2021/09/10 04:15:35;;;;;;;15.00;9.10;;;;;;;12.95;100.00;97789.88;5049871;28;20035;-84
2021/09/10 04:18:01;;;;;;;15.35;9.48;;;;;;;12.81;100.00;97778.34;5064827;28;20408;-84
2021/09/10 04:20:27;;;;;;;17.80;10.23;;;;;;;12.78;100.00;97770.50;5046067;28;20044;-85
2021/09/10 04:22:53;;;;;;;18.50;9.73;;;;;;;12.97;100.00;97805.91;5046827;28;20032;-85
2021/09/10 04:25:18;;;;;;;23.10;9.80;;;;;;;12.87;100.00;97784.16;5048262;28;20137;-85
2021/09/10 04:27:44;;;;;;;23.33;10.82;;;;;;;12.85;100.00;97788.78;5065833;28;20056;-85
2021/09/10 04:30:10;;;;;;;17.65;10.15;;;;;;;12.88;100.00;97795.78;5040868;28;20052;-84
2021/09/10 04:32:36;;;;;;;19.88;10.25;;;;;;;12.98;100.00;97807.63;5068763;28;20028;-85
2021/09/10 04:35:02;;;;;;;16.15;10.10;;;;;;;12.97;100.00;97820.19;5062174;28;20059;-84
2021/09/10 04:37:28;;;;;;;14.75;9.07;;;;;;;12.91;100.00;97793.75;5045577;28;20035;-85
2021/09/10 04:39:53;;;;;;;15.27;9.48;;;;;;;12.99;100.00;97810.19;5045642;28;20029;-85
2021/09/10 04:42:19;;;;;;;18.45;8.98;;;;;;;13.00;100.00;97797.63;5045370;28;20513;-82
2021/09/10 04:44:44;;;;;;;17.33;9.85;;;;;;;13.06;100.00;97791.84;5061967;28;20426;-87
2021/09/10 04:47:10;;;;;;;17.60;9.60;;;;;;;13.13;100.00;97792.31;5054683;28;20035;-80
2021/09/10 04:49:54;;;;;;;19.67;10.18;;;;;;;13.29;100.00;97811.81;5064194;28;20415;-79
2021/09/10 04:52:20;;;;;;;15.55;9.05;;;;;;;13.39;100.00;97805.69;5064894;28;20031;-77
2021/09/10 04:54:46;;;;;;;19.35;9.43;;;;;;;13.40;100.00;97785.91;5065929;28;20067;-80
2021/09/10 04:57:11;;;;;;;18.95;9.00;;;;;;;13.39;100.00;97773.44;5055822;28;20021;-78
2021/09/10 04:59:37;;;;;;;29.73;9.23;;;;;;;13.73;100.00;97806.00;5047697;28;20039;-77
2021/09/10 05:02:03;;;;;;;19.45;9.70;;;;;;;13.76;100.00;97790.53;5064308;28;20028;-78
2021/09/10 05:04:28;;;;;;;27.05;9.10;;;;;;;13.98;100.00;97797.94;5065457;28;20416;-78
2021/09/10 05:06:54;;;;;;;16.88;8.77;;;;;;;14.21;100.00;97812.44;5048689;28;20067;-77
2021/09/10 05:09:20;;;;;;;16.70;9.07;;;;;;;14.33;100.00;97807.06;5068735;28;20101;-77
2021/09/10 05:11:45;;;;;;;17.67;9.25;;;;;;;14.41;100.00;97812.72;5059735;28;20052;-76
2021/09/10 05:14:11;;;;;;;22.10;9.98;;;;;;;14.76;100.00;97818.22;5044406;28;20024;-77
2021/09/10 05:16:37;;;;;;;25.00;11.88;;;;;;;14.95;100.00;97818.53;5065415;28;20112;-77
2021/09/10 05:19:03;;;;;;;24.63;10.93;;;;;;;14.94;100.00;97815.97;5063823;28;20056;-77
2021/09/10 05:21:29;;;;;;;19.88;10.85;;;;;;;14.95;99.90;97813.13;5063941;28;20087;-77
2021/09/10 05:23:55;;;;;;;25.67;12.13;;;;;;;14.68;100.00;97787.41;5057453;28;20021;-77
2021/09/10 05:26:20;;;;;;;28.83;11.23;;;;;;;14.71;100.00;97797.97;5045349;28;20075;-75
2021/09/10 05:28:46;;;;;;;18.88;11.32;;;;;;;14.74;100.00;97805.81;5073047;28;20055;-75
2021/09/10 05:31:12;;;;;;;22.42;10.48;;;;;;;14.87;99.93;97798.53;5072362;28;20036;-75
2021/09/10 05:33:37;;;;;;;18.38;9.65;;;;;;;15.04;99.00;97803.53;5072652;28;20451;-75
2021/09/10 05:36:03;;;;;;;24.13;9.73;;;;;;;15.21;98.01;97805.78;5074355;28;20059;-74
2021/09/10 05:38:29;;;;;;;28.17;10.63;;;;;;;15.04;98.58;97790.06;5053363;28;20037;-75
2021/09/10 05:40:54;;;;;;;18.98;10.88;;;;;;;15.25;97.33;97799.19;5066890;28;20078;-75
2021/09/10 05:43:20;;;;;;;15.85;9.80;;;;;;;15.50;95.18;97788.28;5064122;28;20016;-75
2021/09/10 05:45:45;;;;;;;16.73;10.05;;;;;;;15.80;94.91;97816.50;5052597;28;20027;-75
2021/09/10 05:48:11;;;;;;;15.77;9.43;;;;;;;16.13;92.38;97809.28;5069727;28;20029;-75
2021/09/10 05:50:36;;;;;;;17.85;10.00;;;;;;;16.50;90.71;97812.56;5053960;28;20035;-75
2021/09/10 05:53:02;;;;;;;15.55;8.70;;;;;;;16.86;88.33;97806.00;5052528;28;20079;-76
2021/09/10 05:55:28;;;;;;;24.30;8.90;;;;;;;17.13;85.43;97797.47;5062001;28;20060;-75
2021/09/10 05:57:54;;;;;;;14.85;9.05;;;;;;;17.52;83.55;97818.41;5072043;28;20044;-76
2021/09/10 06:00:19;;;;;;;16.92;9.50;;;;;;;17.87;81.70;97807.28;5071994;28;20028;-77
2021/09/10 06:02:45;;;;;;;20.15;9.48;;;;;;;18.36;78.20;97798.38;5068628;28;20036;-76
2021/09/10 06:05:11;;;;;;;23.88;9.98;;;;;;;19.00;75.44;97806.13;5059191;28;20403;-77
2021/09/10 06:07:37;;;;;;;17.98;9.68;;;;;;;19.29;73.26;97797.00;5069504;28;20051;-76
2021/09/10 06:10:13;;;;;;;24.50;10.85;;;;;;;19.23;74.14;97810.28;5051691;28;20068;-76
2021/09/10 06:12:39;;;;;;;21.13;9.45;;;;;;;19.69;72.14;97813.13;5053027;28;20396;-77
2021/09/10 06:15:05;;;;;;;17.10;8.85;;;;;;;20.12;70.19;97811.78;5051878;28;20047;-75
2021/09/10 06:17:33;;;;;;;14.55;8.98;;;;;;;20.25;69.00;97825.88;5054052;28;20531;-76
2021/09/10 06:20:03;;;;;;;16.38;9.57;;;;;;;21.33;64.54;97821.47;5072726;28;20043;-76
2021/09/10 06:22:31;;;;;;;14.50;8.95;;;;;;;22.48;60.14;97820.34;5038201;28;20067;-76
2021/09/10 06:24:59;;;;;;;15.40;8.82;;;;;;;23.40;56.78;97820.38;5072848;28;20071;-76
2021/09/10 06:27:28;;;;;;;12.80;7.93;;;;;;;23.81;54.42;97819.38;5055022;28;20055;-76
2021/09/10 06:29:54;;;;;;;15.75;7.80;;;;;;;24.88;51.30;97830.84;5031998;28;20405;-76
2021/09/10 06:32:20;;;;;;;13.65;7.65;;;;;;;25.34;49.12;97827.19;5031933;28;20021;-75
2021/09/10 06:34:46;;;;;;;12.23;8.38;;;;;;;26.48;46.60;97832.63;5050046;28;20515;-76
2021/09/10 06:37:12;;;;;;;18.27;6.70;;;;;;;27.14;44.96;97828.09;5071735;28;20017;-76
2021/09/10 06:39:41;;;;;;;15.07;7.18;;;;;;;27.66;43.01;97830.63;5063453;28;20040;-76
2021/09/10 06:42:08;;;;;;;11.13;7.38;;;;;;;27.51;43.00;97818.84;5035099;28;20493;-76
2021/09/10 06:44:39;;;;;;;16.02;7.28;;;;;;;28.12;42.22;97829.22;5052879;28;20033;-76
2021/09/10 06:47:05;;;;;;;17.00;8.10;;;;;;;28.25;41.30;97823.81;5037724;28;20124;-77
2021/09/10 06:49:39;;;;;;;14.77;7.82;;;;;;;28.81;40.42;97821.06;5054869;28;20115;-77
2021/09/10 06:52:09;;;;;;;19.48;7.47;;;;;;;29.61;39.05;97832.25;5040995;28;20036;-76
2021/09/10 06:57:56;;;;;;;13.45;7.22;;;;;;;29.63;38.25;97837.56;5070264;28;20503;-76
2021/09/10 07:00:27;;;;;;;19.95;7.75;;;;;;;28.75;39.72;97827.38;5065137;28;20036;-76
2021/09/10 07:02:54;;;;;;;16.13;7.35;;;;;;;28.60;39.93;97830.22;5072182;28;20506;-76
2021/09/10 07:05:20;;;;;;;9.90;5.97;;;;;;;29.56;37.67;97834.81;5072280;28;20024;-77
2021/09/10 07:07:46;;;;;;;12.70;6.32;;;;;;;27.23;41.33;97837.91;5071940;28;20027;-76
2021/09/10 07:10:12;;;;;;;11.40;6.95;;;;;;;26.97;42.40;97845.84;5062600;28;20033;-76
2021/09/10 07:12:38;;;;;;;16.40;7.50;;;;;;;27.01;42.36;97834.25;5066415;28;20044;-77
2021/09/10 07:15:08;;;;;;;8.90;6.55;;;;;;;27.58;40.98;97825.25;5065053;28;20033;-76
2021/09/10 07:17:33;;;;;;;10.98;6.30;;;;;;;27.44;40.96;97836.09;5054060;28;20041;-76
2021/09/10 07:20:02;;;;;;;11.75;5.35;;;;;;;29.37;38.12;97830.06;5051952;28;20034;-76
2021/09/10 07:22:32;;;;;;;11.23;5.68;;;;;;;28.16;39.83;97835.16;5050410;28;20045;-76
2021/09/10 07:24:58;;;;;;;15.15;5.57;;;;;;;29.53;37.67;97818.69;5067779;28;20104;-76
2021/09/10 07:27:25;;;;;;;7.85;5.80;;;;;;;30.27;36.16;97822.19;5054866;28;20127;-75
2021/09/10 07:29:53;;;;;;;12.07;5.72;;;;;;;30.77;35.50;97837.25;5060445;28;20031;-84
2021/09/10 07:32:22;;;;;;;15.45;6.18;;;;;;;31.69;33.77;97823.13;5058488;28;20071;-84
2021/09/10 07:34:49;;;;;;;11.35;6.28;;;;;;;31.86;33.42;97827.09;5061859;28;20028;-84
2021/09/10 07:37:27;;;;;;;15.07;5.57;;;;;;;32.11;32.97;97832.72;5061669;28;20493;-84
2021/09/10 07:39:57;;;;;;;20.95;5.03;;;;;;;31.11;33.99;97836.13;5040183;28;20029;-84
2021/09/10 07:42:47;;;;;;;25.00;5.22;;;;;;;29.54;36.39;97837.75;5061886;28;20024;-83
2021/09/10 07:45:15;;;;;;;10.82;4.40;;;;;;;28.59;37.93;97842.28;5040935;28;20056;-83
2021/09/10 07:47:46;;;;;;;14.00;3.70;;;;;;;28.07;38.49;97839.97;5057788;28;20051;-83
2021/09/10 07:50:15;;;;;;;5.93;3.05;;;;;;;28.56;37.79;97841.84;5057204;28;20466;-84
2021/09/10 07:58:08;;;;;;;9.03;3.57;;;;;;;31.86;32.89;97816.03;5063085;28;20036;-83
2021/09/10 08:05:40;;;;;;;7.63;3.55;;;;;;;32.78;30.58;97790.34;5059879;28;20033;-84
2021/09/10 08:08:10;;;;;;;5.65;3.28;;;;;;;33.10;29.90;97810.50;5061605;28;20377;-84
2021/09/10 08:10:57;;;;;;;11.73;3.45;;;;;;;34.41;28.63;97807.81;5061863;28;20467;-85
2021/09/10 08:13:33;;;;;;;13.02;3.65;;;;;;;33.34;29.39;97808.72;5053090;28;20037;-83
2021/09/10 08:16:08;;;;;;;13.98;3.28;;;;;;;32.71;29.87;97800.66;5037073;28;20043;-84
2021/09/10 08:18:40;;;;;;;10.85;3.80;;;;;;;33.05;29.30;97796.44;5036956;28;20048;-82
2021/09/10 08:21:17;;;;;;;20.73;4.25;;;;;;;33.50;29.16;97797.81;5061607;28;20112;-84
2021/09/10 08:23:46;;;;;;;8.02;3.20;;;;;;;34.65;27.76;97793.72;5054472;28;20545;-85
2021/09/10 08:26:28;;;;;;;6.25;2.90;;;;;;;32.01;30.28;97771.41;5052121;28;20511;-84
2021/09/10 08:29:02;;;;;;;20.15;3.60;;;;;;;33.14;29.45;97797.84;5031345;28;20034;-83
2021/09/10 08:31:35;;;;;;;20.45;4.32;;;;;;;34.72;28.02;97797.22;5050101;28;20049;-84
2021/09/10 08:34:18;;;;;;;11.65;3.40;;;;;;;33.81;28.37;97784.84;5019071;28;20029;-84
2021/09/10 08:36:46;;;;;;;9.32;3.55;;;;;;;34.39;27.82;97777.50;5038638;28;20047;-84
2021/09/10 08:39:19;;;;;;;11.93;3.22;;;;;;;35.32;26.79;97774.63;5052914;28;20037;-85
2021/09/10 08:42:12;;;;;;;11.98;3.67;;;;;;;36.19;25.70;97772.47;5020909;28;20045;-83
2021/09/10 08:44:46;;;;;;;8.63;3.92;;;;;;;35.75;25.54;97766.63;5055024;28;20063;-83
2021/09/10 08:47:13;;;;;;;15.80;3.45;;;;;;;34.23;27.27;97772.63;5062181;28;20032;-83
2021/09/10 08:49:46;;;;;;;7.88;3.35;;;;;;;30.49;32.08;97757.41;5046425;28;20041;-85
2021/09/10 08:52:25;;;;;;;9.57;3.20;;;;;;;30.98;31.65;97770.69;5045573;28;20101;-84
2021/09/10 08:54:57;;;;;;;6.70;4.13;;;;;;;32.61;29.56;97767.91;5060916;28;20427;-84
2021/09/10 08:57:30;;;;;;;8.82;3.72;;;;;;;31.76;29.28;97762.22;5045620;28;20034;-83
2021/09/10 09:00:16;;;;;;;17.75;3.90;;;;;;;32.13;29.92;97755.78;5041375;28;20044;-84
2021/09/10 09:03:13;;;;;;;8.60;3.17;;;;;;;32.65;28.74;97751.69;5065353;28;20048;-83
2021/09/10 09:05:50;;;;;;;7.75;3.20;;;;;;;33.44;27.73;97751.56;5051294;28;20045;-83
2021/09/10 09:08:23;;;;;;;9.65;3.60;;;;;;;33.88;27.35;97760.56;5070550;28;20029;-83
2021/09/10 09:11:15;;;;;;;10.68;5.28;;;;;;;35.36;25.42;97751.66;5044341;28;20036;-83
2021/09/10 09:14:08;;;;;;;15.02;3.40;;;;;;;34.27;26.85;97758.00;5065291;28;20115;-83
2021/09/10 09:16:52;;;;;;;5.57;2.92;;;;;;;31.24;30.55;97758.69;5049927;28;20458;-83
2021/09/10 09:19:50;;;;;;;7.18;3.20;;;;;;;28.70;34.18;97772.06;5055545;28;20518;-83
2021/09/10 09:23:04;;;;;;;7.75;3.60;;;;;;;29.26;34.43;97779.13;5057104;28;20385;-83
2021/09/10 09:25:56;;;;;;;8.98;4.38;;;;;;;30.74;32.53;97768.63;5055304;28;20045;-85
2021/09/10 09:28:34;;;;;;;7.57;3.08;;;;;;;32.29;29.30;97755.22;5064211;28;20044;-84
2021/09/10 09:31:02;;;;;;;7.05;2.90;;;;;;;33.41;28.11;97735.41;5064438;28;20494;-83
2021/09/10 09:33:47;;;;;;;9.00;3.08;;;;;;;34.93;26.43;97751.25;5061856;28;20535;-83
2021/09/10 09:36:36;;;;;;;8.80;3.10;;;;;;;36.00;24.50;97734.75;5043951;28;20068;-84
2021/09/10 09:39:26;;;;;;;14.55;3.00;;;;;;;36.98;23.31;97725.75;5059521;28;20495;-84
2021/09/10 09:42:11;;;;;;;10.77;2.55;;;;;;;35.40;23.33;97707.47;5066785;28;20040;-84
2021/09/10 09:44:41;;;;;;;6.38;3.20;;;;;;;35.19;24.34;97713.72;5041311;28;20087;-83
2021/09/10 09:47:06;;;;;;;7.03;3.05;;;;;;;32.89;25.52;97720.28;5060487;28;20035;-84
2021/09/10 09:49:32;;;;;;;5.25;2.88;;;;;;;32.59;25.78;97714.66;5061092;28;20025;-84
2021/09/10 09:52:03;;;;;;;13.77;3.10;;;;;;;33.57;24.43;97706.97;5054723;28;20557;-83
2021/09/10 09:54:30;;;;;;;8.70;2.87;;;;;;;35.41;22.92;97694.41;5057138;28;20057;-83
2021/09/10 09:56:56;;;;;;;11.20;2.78;;;;;;;36.09;21.94;97699.84;5042568;28;20035;-83
2021/09/10 09:59:22;;;;;;;9.40;2.38;;;;;;;35.14;22.10;97686.63;5065886;28;20031;-84
2021/09/10 10:01:48;;;;;;;8.35;3.55;;;;;;;34.25;23.82;97695.44;5060178;28;20492;-84
2021/09/10 10:04:13;;;;;;;15.70;3.40;;;;;;;35.96;22.80;97689.03;5043298;28;20444;-84
2021/09/10 10:06:41;;;;;;;12.98;3.53;;;;;;;36.08;22.06;97690.66;5066098;28;20063;-82
2021/09/10 10:09:14;;;;;;;9.85;3.25;;;;;;;36.11;21.90;97704.09;5062399;28;20031;-83
2021/09/10 10:11:43;;;;;;;9.27;2.80;;;;;;;34.59;23.10;97683.50;5036815;28;20075;-84
2021/09/10 10:14:13;;;;;;;9.65;4.28;;;;;;;33.71;24.55;97697.41;5058827;28;20028;-83
2021/09/10 10:16:43;;;;;;;7.70;2.92;;;;;;;35.30;22.35;97680.28;5062023;28;20044;-85
2021/09/10 10:19:21;;;;;;;11.10;2.70;;;;;;;34.68;22.30;97695.91;5044468;28;20389;-84
2021/09/10 10:22:07;;;;;;;3.63;2.58;;;;;;;34.24;21.61;97686.25;5067508;28;20547;-84
2021/09/10 10:24:56;;;;;;;14.32;2.40;;;;;;;32.34;23.17;97686.13;5060714;28;20037;-85
2021/09/10 10:27:35;;;;;;;11.82;2.80;;;;;;;33.25;22.73;97686.97;5044691;28;20027;-84
2021/09/10 10:30:21;;;;;;;8.65;3.10;;;;;;;33.62;21.87;97682.19;5037584;28;20448;-85
2021/09/10 10:32:50;;;;;;;5.40;2.55;;;;;;;33.08;22.17;97685.94;5036250;28;20514;-84
2021/09/10 10:35:25;;;;;;;9.82;2.72;;;;;;;32.46;22.54;97670.44;5053628;28;20139;-84
2021/09/10 10:38:13;;;;;;;17.30;2.70;;;;;;;32.22;21.98;97663.91;5053329;28;20025;-84
2021/09/10 10:40:40;;;;;;;5.10;2.35;;;;;;;34.09;20.29;97665.56;5064044;28;20036;-83
2021/09/10 10:43:25;;;;;;;11.60;2.47;;;;;;;33.98;21.23;97658.94;5071139;28;20030;-81
2021/09/10 10:46:00;;;;;;;4.47;2.40;;;;;;;33.44;21.66;97668.31;5053416;28;20411;-81
2021/09/10 10:48:32;;;;;;;7.95;2.58;;;;;;;33.61;21.56;97674.94;5054047;28;20024;-82
2021/09/10 10:51:17;;;;;;;5.07;2.53;;;;;;;32.42;22.53;97674.78;5070794;28;20028;-83
2021/09/10 10:53:47;;;;;;;4.60;2.30;;;;;;;32.80;22.71;97677.31;5067802;28;20419;-82
2021/09/10 10:56:42;;;;;;;2.97;2.00;;;;;;;32.09;22.56;97660.41;5053058;28;20029;-78
2021/09/10 10:59:14;;;;;;;6.20;2.85;;;;;;;33.79;20.93;97655.41;5039968;28;20111;-79
2021/09/10 11:02:19;;;;;;;7.25;2.33;;;;;;;34.84;20.16;97652.59;5065460;28;20028;-78
2021/09/10 11:05:07;;;;;;;6.65;2.83;;;;;;;34.63;20.46;97640.22;5067360;28;20510;-78
2021/09/10 11:07:33;;;;;;;7.18;3.28;;;;;;;35.93;18.73;97640.25;5069962;28;20458;-78
2021/09/10 11:10:07;;;;;;;9.20;3.00;;;;;;;36.26;18.57;97629.09;5035883;28;20117;-79
2021/09/10 11:12:34;;;;;;;14.13;3.45;;;;;;;36.65;18.39;97632.72;5070866;28;20032;-78
2021/09/10 11:15:00;;;;;;;7.68;3.08;;;;;;;36.43;17.81;97626.25;5052656;28;20024;-78
2021/09/10 11:17:27;;;;;;;7.15;3.03;;;;;;;36.53;18.01;97629.19;5053017;28;20026;-78
2021/09/10 11:19:56;;;;;;;6.32;2.60;;;;;;;35.76;17.98;97617.09;5053696;28;20103;-84
2021/09/10 11:22:22;;;;;;;5.28;2.70;;;;;;;35.92;18.29;97626.56;5036427;28;20043;-84
2021/09/10 11:24:48;;;;;;;9.82;2.70;;;;;;;35.85;18.46;97624.78;5049375;28;20028;-85
2021/09/10 11:27:22;;;;;;;6.07;2.63;;;;;;;36.18;18.33;97625.91;5053703;28;20060;-87
2021/09/10 11:29:47;;;;;;;6.65;2.40;;;;;;;36.08;17.52;97597.88;5059185;28;20032;-89
2021/09/10 11:32:20;;;;;;;4.82;2.55;;;;;;;34.43;18.91;97592.50;5054978;28;20098;-87
2021/09/10 11:34:46;;;;;;;8.68;2.60;;;;;;;34.62;19.17;97598.75;5068162;28;20028;-81
2021/09/10 11:37:11;;;;;;;5.55;2.83;;;;;;;35.08;18.82;97601.34;5051786;28;20023;-81
2021/09/10 11:39:47;;;;;;;6.05;3.13;;;;;;;35.90;18.69;97599.78;5056851;28;20021;-88
2021/09/10 11:42:13;;;;;;;7.40;2.28;;;;;;;36.55;18.55;97607.47;5052871;28;20025;-88
2021/09/10 11:45:02;;;;;;;6.00;2.70;;;;;;;37.85;16.96;97612.84;5054133;28;20097;-88